Spring Creek, South Dakota
Current Conditions -  °F | °C
As of 11:52 AM on Thursday 29 Jan 2015 (Local Time) from KVTN Reporting Station
Clear Clear  
Wind Chill: 31°   Ceiling: Unl
Heat Index: 39°   Visibility: 10mi
Dew Point: 23°   Wind: 15mph
Humidity: 53%   Direction: 330°NNW
Pressure: 30.48"   Gusts: NA
Location:  43.1381°N, 100.965°W
Report Text: KVTN 291752Z AUTO 33013KT 10SM CLR 04/M05 A3048 RMK AO2 SLP341 T00391050 10039 20011 50011
Loading
Personal Weather Stations






























Interactive Weather Map New forecast layout! Learn more

10-Day Weather Forecast

Advertisements
Track Severe Weather on mobile